createdAt,value
2019-01-26T00:01:09.545Z,87.30
2019-01-26T00:03:42.312Z,87.40
2019-01-26T00:06:14.920Z,88.00
2019-01-26T00:08:47.720Z,87.50
2019-01-26T00:11:20.102Z,87.10
2019-01-26T00:13:52.628Z,86.60
2019-01-26T00:16:25.181Z,86.90
2019-01-26T00:18:59.427Z,86.90
2019-01-26T00:21:31.781Z,89.80
2019-01-26T00:24:04.855Z,89.40
2019-01-26T00:26:37.350Z,87.90
2019-01-26T00:29:09.919Z,87.90
2019-01-26T00:31:42.285Z,88.20
2019-01-26T00:34:15.200Z,87.80
2019-01-26T00:36:49.318Z,88.00
2019-01-26T00:39:21.889Z,88.10
2019-01-26T00:41:54.556Z,88.40
2019-01-26T00:44:26.999Z,88.40
2019-01-26T00:46:59.409Z,88.60
2019-01-26T00:49:31.955Z,88.50
2019-01-26T00:52:04.359Z,88.90
2019-01-26T00:54:36.960Z,89.00
2019-01-26T00:57:09.679Z,88.90
2019-01-26T00:59:42.022Z,88.80
2019-01-26T01:02:14.846Z,88.80
2019-01-26T01:04:47.157Z,88.80
2019-01-26T01:07:19.808Z,89.10
2019-01-26T01:09:53.320Z,89.30
2019-01-26T01:12:26.036Z,90.40
2019-01-26T01:14:58.414Z,91.10
2019-01-26T01:17:30.827Z,89.30
2019-01-26T01:20:03.348Z,89.50
2019-01-26T01:22:35.976Z,89.20
2019-01-26T01:25:09.153Z,89.10
2019-01-26T01:27:41.716Z,89.50
2019-01-26T01:30:18.436Z,89.40
2019-01-26T01:32:51.000Z,89.70
2019-01-26T01:35:23.352Z,89.30
2019-01-26T01:37:55.940Z,89.90
2019-01-26T01:40:28.385Z,90.00
2019-01-26T01:43:00.743Z,89.70
2019-01-26T01:45:33.582Z,89.80
2019-01-26T01:48:05.975Z,90.00
2019-01-26T01:50:38.328Z,89.90
2019-01-26T01:53:10.687Z,90.00
2019-01-26T01:55:44.774Z,90.20
2019-01-26T01:58:17.277Z,90.20
2019-01-26T02:00:49.657Z,90.30
2019-01-26T02:03:22.065Z,89.90
2019-01-26T02:05:54.551Z,90.00
2019-01-26T02:08:26.901Z,90.10
2019-01-26T02:10:59.246Z,90.00
2019-01-26T02:13:31.663Z,90.20
2019-01-26T02:16:04.687Z,90.20
2019-01-26T02:18:38.113Z,90.20
2019-01-26T02:21:11.184Z,90.30
2019-01-26T02:23:43.510Z,90.20
2019-01-26T02:26:15.857Z,90.20
2019-01-26T02:28:48.527Z,90.30
2019-01-26T02:31:20.902Z,90.30
2019-01-26T02:33:53.551Z,90.30
2019-01-26T02:36:26.124Z,90.20
2019-01-26T02:38:58.649Z,90.20
2019-01-26T02:41:31.135Z,90.20
2019-01-26T02:44:03.757Z,90.50
2019-01-26T02:46:36.035Z,90.80
2019-01-26T02:49:08.435Z,90.60
2019-01-26T02:51:40.857Z,90.50
2019-01-26T02:54:13.397Z,90.50
2019-01-26T02:56:45.893Z,90.60
2019-01-26T02:59:18.238Z,90.60
2019-01-26T03:01:50.589Z,90.70
2019-01-26T03:04:22.983Z,90.90
2019-01-26T03:06:55.422Z,91.00
2019-01-26T03:09:27.923Z,91.00
2019-01-26T03:12:00.520Z,91.20
2019-01-26T03:14:33.208Z,91.20
2019-01-26T03:17:06.559Z,91.10
2019-01-26T03:19:38.956Z,91.30
2019-01-26T03:22:11.515Z,91.30
2019-01-26T03:24:43.921Z,91.50
2019-01-26T03:27:16.493Z,91.60
2019-01-26T03:29:48.883Z,91.50
2019-01-26T03:32:21.428Z,91.90
2019-01-26T03:34:53.789Z,91.50
2019-01-26T03:37:26.426Z,91.60
2019-01-26T03:39:58.898Z,91.70
2019-01-26T03:42:31.543Z,91.70
2019-01-26T03:45:04.270Z,92.00
2019-01-26T03:47:36.727Z,91.90
2019-01-26T03:50:10.923Z,91.80
2019-01-26T03:52:43.216Z,91.80
2019-01-26T03:55:18.061Z,91.90
2019-01-26T03:57:50.930Z,91.90
2019-01-26T04:00:26.423Z,91.90
2019-01-26T04:02:58.959Z,91.90
2019-01-26T04:05:31.455Z,92.00
2019-01-26T04:08:04.134Z,92.10
2019-01-26T04:10:36.438Z,92.30
2019-01-26T04:13:09.127Z,92.40
2019-01-26T04:15:52.619Z,92.50
2019-01-26T04:18:25.250Z,92.70
2019-01-26T04:20:58.036Z,93.10
2019-01-26T04:23:30.501Z,93.10
2019-01-26T04:26:03.103Z,93.00
2019-01-26T04:28:35.609Z,93.00
2019-01-26T04:31:07.981Z,93.00
2019-01-26T04:33:40.376Z,93.10
2019-01-26T04:36:12.834Z,93.20
2019-01-26T04:38:45.159Z,93.20
2019-01-26T04:41:17.551Z,93.30
2019-01-26T04:43:50.182Z,93.30
2019-01-26T04:46:22.485Z,93.40
2019-01-26T04:48:55.031Z,93.50
2019-01-26T04:51:27.548Z,93.50
2019-01-26T04:53:59.842Z,93.70
2019-01-26T04:56:32.279Z,93.60
2019-01-26T04:59:04.727Z,93.70
2019-01-26T05:01:37.238Z,93.80
2019-01-26T05:04:09.770Z,93.90
2019-01-26T05:06:42.316Z,93.90
2019-01-26T05:09:14.707Z,93.80
2019-01-26T05:11:47.268Z,93.80
2019-01-26T05:14:19.845Z,93.90
2019-01-26T05:16:51.813Z,94.00
2019-01-26T05:19:24.866Z,94.00
2019-01-26T05:21:57.374Z,94.20
2019-01-26T05:24:29.948Z,94.20
2019-01-26T05:27:02.663Z,94.30
2019-01-26T05:29:35.180Z,94.40
2019-01-26T05:32:07.884Z,94.50
2019-01-26T05:34:40.449Z,94.70
2019-01-26T05:37:13.009Z,94.70
2019-01-26T05:39:45.314Z,94.60
2019-01-26T05:42:17.786Z,94.80
2019-01-26T05:44:50.295Z,94.70
2019-01-26T05:47:22.800Z,94.70
2019-01-26T05:49:55.395Z,94.70
2019-01-26T05:52:27.850Z,94.70
2019-01-26T05:55:00.270Z,94.70
2019-01-26T05:57:32.878Z,94.70
2019-01-26T06:00:06.368Z,94.70
2019-01-26T06:02:38.970Z,94.70
2019-01-26T06:05:11.664Z,94.40
2019-01-26T06:07:44.141Z,94.40
2019-01-26T06:10:17.013Z,94.60
2019-01-26T06:12:49.686Z,94.40
2019-01-26T06:15:22.344Z,94.30
2019-01-26T06:17:55.463Z,94.20
2019-01-26T06:20:28.072Z,94.00
2019-01-26T06:23:00.414Z,93.90
2019-01-26T06:25:33.067Z,93.90
2019-01-26T06:28:05.581Z,93.70
2019-01-26T06:30:37.833Z,94.10
2019-01-26T06:33:10.502Z,94.40
2019-01-26T06:35:42.873Z,93.70
2019-01-26T06:38:15.249Z,93.60
2019-01-26T06:40:47.847Z,93.50
2019-01-26T06:43:20.482Z,93.40
2019-01-26T06:45:53.028Z,93.20
2019-01-26T06:48:25.409Z,93.00
2019-01-26T06:50:59.103Z,92.50
2019-01-26T06:53:31.711Z,92.30
2019-01-26T06:56:04.359Z,91.90
2019-01-26T06:58:36.880Z,91.90
2019-01-26T07:01:10.597Z,91.40
2019-01-26T07:03:43.119Z,91.30
2019-01-26T07:06:33.028Z,93.30
2019-01-26T07:09:08.526Z,92.90
2019-01-26T07:11:41.244Z,91.90
2019-01-26T07:14:13.579Z,91.90
2019-01-26T07:16:45.858Z,92.10
2019-01-26T07:19:18.301Z,92.10
2019-01-26T07:21:50.627Z,92.40
2019-01-26T07:24:24.845Z,92.40
2019-01-26T07:26:57.536Z,92.60
2019-01-26T07:29:30.179Z,92.80
2019-01-26T07:32:02.652Z,96.40
2019-01-26T07:34:34.883Z,96.70
2019-01-26T07:37:07.416Z,93.50
2019-01-26T07:39:39.731Z,93.20
2019-01-26T07:42:12.215Z,93.50
2019-01-26T07:44:44.521Z,93.20
2019-01-26T07:47:17.081Z,93.10
2019-01-26T07:49:50.702Z,92.90
2019-01-26T07:52:23.529Z,93.20
2019-01-26T07:54:55.844Z,93.10
2019-01-26T07:57:28.125Z,93.20
2019-01-26T08:00:00.524Z,92.90
2019-01-26T08:02:33.126Z,93.00
2019-01-26T08:05:07.007Z,92.80
2019-01-26T08:07:39.345Z,92.70
2019-01-26T08:10:16.173Z,92.70
2019-01-26T08:12:49.240Z,92.50
2019-01-26T08:15:34.379Z,92.60
2019-01-26T08:18:08.510Z,92.60
2019-01-26T08:20:41.102Z,92.80
2019-01-26T08:23:14.018Z,92.80
2019-01-26T08:25:46.255Z,93.60
2019-01-26T08:28:18.846Z,93.90
2019-01-26T08:30:51.071Z,93.20
2019-01-26T08:33:23.595Z,93.00
2019-01-26T08:35:56.006Z,94.90
2019-01-26T08:38:29.772Z,97.20
2019-01-26T08:41:02.119Z,93.80
2019-01-26T08:43:34.893Z,92.90
2019-01-26T08:46:07.428Z,92.60
2019-01-26T08:48:39.808Z,92.30
2019-01-26T08:51:12.077Z,92.70
2019-01-26T08:53:44.543Z,92.30
2019-01-26T08:56:18.330Z,92.50
2019-01-26T08:58:50.557Z,92.40
2019-01-26T09:01:23.111Z,92.30
2019-01-26T09:04:11.773Z,92.60
2019-01-26T09:06:46.879Z,93.10
2019-01-26T09:09:19.176Z,94.10
2019-01-26T09:11:51.677Z,94.50
2019-01-26T09:14:24.228Z,94.60
2019-01-26T09:16:56.728Z,95.00
2019-01-26T09:19:29.267Z,95.50
2019-01-26T09:22:01.793Z,95.90
2019-01-26T09:24:34.151Z,96.50
2019-01-26T09:27:06.915Z,97.10
2019-01-26T09:29:39.338Z,98.80
2019-01-26T09:32:13.436Z,99.60
2019-01-26T09:34:45.763Z,99.90
2019-01-26T09:37:18.885Z,99.90
2019-01-26T09:39:51.224Z,99.90
2019-01-26T09:42:23.602Z,99.90
2019-01-26T09:44:56.179Z,99.90
2019-01-26T09:47:28.646Z,99.90
2019-01-26T09:50:01.018Z,99.90
2019-01-26T09:52:33.496Z,99.90
2019-01-26T09:55:06.786Z,99.90
2019-01-26T09:57:39.322Z,99.90
2019-01-26T10:00:16.167Z,99.90
2019-01-26T10:02:48.740Z,99.90
2019-01-26T10:05:21.235Z,99.90
2019-01-26T10:07:54.471Z,99.90
2019-01-26T10:10:27.081Z,99.90
2019-01-26T10:12:59.522Z,99.90
2019-01-26T10:15:32.580Z,99.90
2019-01-26T10:18:05.456Z,99.90
2019-01-26T10:20:39.114Z,99.90
2019-01-26T10:23:11.675Z,99.90
2019-01-26T10:25:48.610Z,99.90
2019-01-26T10:28:17.865Z,99.90
2019-01-26T10:30:52.955Z,99.90
2019-01-26T10:33:25.922Z,99.90
2019-01-26T10:36:17.063Z,99.90
2019-01-26T10:38:58.170Z,99.90
2019-01-26T10:41:45.429Z,99.90
2019-01-26T10:44:31.546Z,99.90
2019-01-26T10:47:04.313Z,99.90
2019-01-26T10:49:36.816Z,99.90
2019-01-26T10:52:09.566Z,99.90
2019-01-26T10:54:43.639Z,99.90
2019-01-26T10:57:16.188Z,99.90
2019-01-26T10:59:48.792Z,99.90
2019-01-26T11:02:21.215Z,99.90
2019-01-26T11:04:53.601Z,99.90
2019-01-26T11:07:26.335Z,99.90
2019-01-26T11:10:00.634Z,99.90
2019-01-26T11:12:33.353Z,99.90
2019-01-26T11:15:06.281Z,99.90
2019-01-26T11:17:38.745Z,99.90
2019-01-26T11:20:12.226Z,99.90
2019-01-26T11:22:44.940Z,99.90
2019-01-26T11:25:17.508Z,99.90
2019-01-26T11:27:50.038Z,99.90
2019-01-26T11:30:24.143Z,99.90
2019-01-26T11:32:56.485Z,99.90
2019-01-26T11:35:29.070Z,99.90
2019-01-26T11:38:01.459Z,99.90
2019-01-26T11:40:34.385Z,99.90
2019-01-26T11:43:06.967Z,99.90
2019-01-26T11:45:56.749Z,99.90
2019-01-26T11:48:32.175Z,99.90
2019-01-26T11:51:26.605Z,99.90
2019-01-26T11:53:59.026Z,99.90
2019-01-26T11:56:56.101Z,99.90
2019-01-26T11:59:28.508Z,99.90
2019-01-26T12:02:19.693Z,99.90
2019-01-26T12:05:14.214Z,99.90
2019-01-26T12:07:46.621Z,99.90
2019-01-26T12:10:18.944Z,99.90
2019-01-26T12:12:51.520Z,99.90
2019-01-26T12:15:24.054Z,99.90
2019-01-26T12:17:56.574Z,99.90
2019-01-26T12:20:29.264Z,99.90
2019-01-26T12:23:02.012Z,99.90
2019-01-26T12:25:34.700Z,99.90
2019-01-26T12:28:07.258Z,99.90
2019-01-26T12:30:39.899Z,99.90
2019-01-26T12:33:12.528Z,99.90
2019-01-26T12:35:45.315Z,99.90
2019-01-26T12:38:17.900Z,99.90
2019-01-26T12:40:50.250Z,99.90
2019-01-26T12:43:22.836Z,99.90
2019-01-26T12:45:55.461Z,99.90
2019-01-26T12:48:27.956Z,99.90
2019-01-26T12:51:00.352Z,99.90
2019-01-26T12:53:32.668Z,99.90
2019-01-26T12:56:05.827Z,99.90
2019-01-26T12:58:38.305Z,99.90
2019-01-26T13:01:11.165Z,99.90
2019-01-26T13:03:43.642Z,99.90
2019-01-26T13:06:16.121Z,99.90
2019-01-26T13:08:48.456Z,99.90
2019-01-26T13:11:27.339Z,99.90
2019-01-26T13:13:59.862Z,99.90
2019-01-26T13:16:32.503Z,99.90
2019-01-26T13:19:05.534Z,99.90
2019-01-26T13:21:38.188Z,99.90
2019-01-26T13:24:10.992Z,99.90
2019-01-26T13:26:43.544Z,99.90
2019-01-26T13:29:16.382Z,99.90
2019-01-26T13:31:48.789Z,99.90
2019-01-26T13:34:21.369Z,99.90
2019-01-26T13:36:53.993Z,99.90
2019-01-26T13:39:26.574Z,99.90
2019-01-26T13:41:59.304Z,99.90
2019-01-26T13:44:31.657Z,99.90
2019-01-26T13:47:04.097Z,99.90
2019-01-26T13:49:36.800Z,99.90
2019-01-26T13:52:09.248Z,99.90
2019-01-26T13:54:41.681Z,99.90
2019-01-26T13:57:14.482Z,99.90
2019-01-26T13:59:46.880Z,99.90
2019-01-26T14:02:19.248Z,99.90
2019-01-26T14:04:51.901Z,99.90
2019-01-26T14:07:24.542Z,99.90
2019-01-26T14:09:57.019Z,99.90
2019-01-26T14:12:29.411Z,99.90
2019-01-26T14:15:01.859Z,99.90
2019-01-26T14:17:34.623Z,99.90
2019-01-26T14:20:10.199Z,99.90
2019-01-26T14:22:42.646Z,99.90
2019-01-26T14:25:15.544Z,99.90
2019-01-26T14:27:48.233Z,99.90
2019-01-26T14:30:39.720Z,99.90
2019-01-26T14:33:12.286Z,99.90
2019-01-26T14:35:44.718Z,99.90
2019-01-26T14:38:17.615Z,99.90
2019-01-26T14:40:50.028Z,99.90
2019-01-26T14:43:22.587Z,99.90
2019-01-26T14:45:55.014Z,99.90
2019-01-26T14:48:27.495Z,99.90
2019-01-26T14:50:59.954Z,99.90
2019-01-26T14:53:33.145Z,99.90
2019-01-26T14:56:07.614Z,99.90
2019-01-26T14:58:40.244Z,99.90
2019-01-26T15:01:12.619Z,99.90
2019-01-26T15:03:45.034Z,99.90
2019-01-26T15:06:17.605Z,99.90
2019-01-26T15:08:50.254Z,99.90
2019-01-26T15:11:23.751Z,99.90
2019-01-26T15:13:56.225Z,99.90
2019-01-26T15:16:28.589Z,99.90
2019-01-26T15:19:01.013Z,99.90
2019-01-26T15:21:33.665Z,99.90
2019-01-26T15:24:06.359Z,99.90
2019-01-26T15:26:38.973Z,99.90
2019-01-26T15:29:11.618Z,99.90
2019-01-26T15:31:44.024Z,99.90
2019-01-26T15:34:16.810Z,99.90
2019-01-26T15:36:49.178Z,99.90
2019-01-26T15:39:21.851Z,99.90
2019-01-26T15:41:54.399Z,99.90
2019-01-26T15:44:26.951Z,99.90
2019-01-26T15:46:59.515Z,99.90
2019-01-26T15:49:32.398Z,99.90
2019-01-26T15:52:05.267Z,99.90
2019-01-26T15:54:37.782Z,99.90
2019-01-26T15:57:10.324Z,99.90
2019-01-26T15:59:42.717Z,99.90
2019-01-26T16:02:15.432Z,99.90
2019-01-26T16:04:48.215Z,99.90
2019-01-26T16:07:20.690Z,99.90
2019-01-26T16:09:53.392Z,99.90
2019-01-26T16:12:26.067Z,99.90
2019-01-26T16:14:58.362Z,99.90
2019-01-26T16:17:31.192Z,99.90
2019-01-26T16:20:06.057Z,99.90
2019-01-26T16:22:38.554Z,99.90
2019-01-26T16:25:11.843Z,99.90
2019-01-26T16:27:44.555Z,99.90
2019-01-26T16:30:20.601Z,99.90
2019-01-26T16:32:53.238Z,99.90
2019-01-26T16:35:27.569Z,99.90
2019-01-26T16:38:00.082Z,99.90
2019-01-26T16:40:34.843Z,99.90
2019-01-26T16:43:07.417Z,99.90
2019-01-26T16:45:41.450Z,99.90
2019-01-26T16:48:16.461Z,99.90
2019-01-26T16:50:48.869Z,99.90
2019-01-26T16:53:21.581Z,99.90
2019-01-26T16:55:54.069Z,99.90
2019-01-26T16:58:26.569Z,99.90
2019-01-26T17:01:01.599Z,99.90
2019-01-26T17:03:34.010Z,99.90
2019-01-26T17:06:08.262Z,99.90
2019-01-26T17:08:41.083Z,99.90
2019-01-26T17:11:13.424Z,99.90
2019-01-26T17:13:45.889Z,99.90
2019-01-26T17:16:18.328Z,99.90
2019-01-26T17:18:51.001Z,99.90
2019-01-26T17:21:23.864Z,99.90
2019-01-26T17:23:56.390Z,99.90
2019-01-26T17:26:28.707Z,99.90
2019-01-26T17:29:01.352Z,99.90
2019-01-26T17:31:33.825Z,99.90
2019-01-26T17:34:06.912Z,99.90
2019-01-26T17:36:39.546Z,99.90
2019-01-26T17:39:12.100Z,99.90
2019-01-26T17:41:44.476Z,99.90
2019-01-26T17:44:16.995Z,99.90
2019-01-26T17:46:49.546Z,99.90
2019-01-26T17:49:22.201Z,99.90
2019-01-26T17:51:54.913Z,99.90
2019-01-26T17:54:27.689Z,99.90
2019-01-26T17:57:01.126Z,99.90
2019-01-26T17:59:33.838Z,99.90
2019-01-26T18:02:06.484Z,99.90
2019-01-26T18:04:39.028Z,99.90
2019-01-26T18:07:11.327Z,99.90
2019-01-26T18:09:43.723Z,99.90
2019-01-26T18:12:16.303Z,99.90
2019-01-26T18:14:48.814Z,99.90
2019-01-26T18:17:21.283Z,99.90
2019-01-26T18:19:53.887Z,99.90
2019-01-26T18:22:26.969Z,99.90
2019-01-26T18:24:59.616Z,99.90
2019-01-26T18:27:32.053Z,99.90
2019-01-26T18:30:04.969Z,99.90
2019-01-26T18:32:39.472Z,99.90
2019-01-26T18:35:13.644Z,99.90
2019-01-26T18:37:46.666Z,99.90
2019-01-26T18:40:22.827Z,99.90
2019-01-26T18:42:57.199Z,99.90
2019-01-26T18:45:29.781Z,99.90
2019-01-26T18:48:02.354Z,99.90
2019-01-26T18:50:37.305Z,99.90
2019-01-26T18:53:09.945Z,99.90
2019-01-26T18:55:42.432Z,99.90
2019-01-26T18:58:14.915Z,99.90
2019-01-26T19:00:50.753Z,99.90
2019-01-26T19:04:12.338Z,99.90
2019-01-26T19:06:44.751Z,99.90
2019-01-26T19:09:17.406Z,99.90
2019-01-26T19:11:49.791Z,99.90
2019-01-26T19:14:22.159Z,99.90
2019-01-26T19:16:54.696Z,99.90
2019-01-26T19:19:27.102Z,99.90
2019-01-26T19:21:59.495Z,99.90
2019-01-26T19:24:32.036Z,99.90
2019-01-26T19:27:05.020Z,99.90
2019-01-26T19:29:37.479Z,99.90
2019-01-26T19:32:09.997Z,99.90
2019-01-26T19:34:42.501Z,99.90
2019-01-26T19:37:15.702Z,99.90
2019-01-26T19:39:49.171Z,99.90
2019-01-26T19:42:21.549Z,99.90
2019-01-26T19:44:54.136Z,99.90
2019-01-26T19:47:26.619Z,99.90
2019-01-26T19:49:59.100Z,99.90
2019-01-26T19:52:31.629Z,99.90
2019-01-26T19:55:04.687Z,99.90
2019-01-26T19:57:37.525Z,99.90
2019-01-26T20:00:10.423Z,99.90
2019-01-26T20:02:42.962Z,99.90
2019-01-26T20:05:18.694Z,99.90
2019-01-26T20:07:51.651Z,99.90
2019-01-26T20:10:24.522Z,99.90
2019-01-26T20:12:57.197Z,99.90
2019-01-26T20:15:29.585Z,99.90
2019-01-26T20:18:02.149Z,99.90
2019-01-26T20:20:35.882Z,99.90
2019-01-26T20:23:08.257Z,99.90
2019-01-26T20:25:40.670Z,99.90
2019-01-26T20:28:13.277Z,99.90
2019-01-26T20:30:46.164Z,99.90
2019-01-26T20:33:18.954Z,99.90
2019-01-26T20:35:51.719Z,99.90
2019-01-26T20:38:24.295Z,99.90
2019-01-26T20:40:58.526Z,99.90
2019-01-26T20:43:30.921Z,99.90
2019-01-26T20:46:03.569Z,99.90
2019-01-26T20:48:35.958Z,99.90
2019-01-26T20:51:08.442Z,99.90
2019-01-26T20:53:41.212Z,99.90
2019-01-26T20:56:13.778Z,99.90
2019-01-26T20:58:46.164Z,99.90
2019-01-26T21:01:18.668Z,99.90
2019-01-26T21:03:51.096Z,99.90
2019-01-26T21:06:23.399Z,99.90
2019-01-26T21:08:55.956Z,99.90
2019-01-26T21:11:28.221Z,99.90
2019-01-26T21:14:00.689Z,99.90
2019-01-26T21:16:33.472Z,99.90
2019-01-26T21:19:06.199Z,99.90
2019-01-26T21:21:38.641Z,99.90
2019-01-26T21:24:11.439Z,99.90
2019-01-26T21:26:44.058Z,99.90
2019-01-26T21:29:16.647Z,99.90
2019-01-26T21:31:49.140Z,99.90
2019-01-26T21:34:21.849Z,99.90
2019-01-26T21:36:55.215Z,99.90
2019-01-26T21:39:27.975Z,99.90
2019-01-26T21:42:00.491Z,99.90
2019-01-26T21:44:33.822Z,99.90
2019-01-26T21:47:06.794Z,99.90
2019-01-26T21:49:39.553Z,99.90
2019-01-26T21:52:12.161Z,99.90
2019-01-26T21:54:44.666Z,99.90
2019-01-26T21:57:17.306Z,99.90
2019-01-26T21:59:49.919Z,99.90
2019-01-26T22:02:22.546Z,99.90
2019-01-26T22:04:55.243Z,99.90
2019-01-26T22:07:27.733Z,99.90
2019-01-26T22:10:00.363Z,99.90
2019-01-26T22:12:32.734Z,99.90
2019-01-26T22:15:06.134Z,99.90
2019-01-26T22:17:38.559Z,99.90
2019-01-26T22:20:18.287Z,99.90
2019-01-26T22:22:51.483Z,99.90
2019-01-26T22:25:24.213Z,99.90
2019-01-26T22:27:58.456Z,99.90
2019-01-26T22:30:33.702Z,99.90
2019-01-26T22:33:06.295Z,99.90
2019-01-26T22:35:38.775Z,99.90
2019-01-26T22:38:11.362Z,99.90
2019-01-26T22:40:43.826Z,99.90
2019-01-26T22:43:16.500Z,99.90
2019-01-26T22:45:49.324Z,99.90
2019-01-26T22:48:22.166Z,99.90
2019-01-26T22:50:54.849Z,99.90
2019-01-26T22:53:27.469Z,99.90
2019-01-26T22:56:00.492Z,99.90
2019-01-26T22:58:33.008Z,99.90
2019-01-26T23:01:27.147Z,99.90
2019-01-26T23:04:49.615Z,99.90
2019-01-26T23:07:44.722Z,99.90
2019-01-26T23:11:28.975Z,99.90
2019-01-26T23:14:37.094Z,99.90
2019-01-26T23:17:31.339Z,99.90
2019-01-26T23:20:56.533Z,99.90
2019-01-26T23:24:26.782Z,99.90
2019-01-26T23:27:55.825Z,99.90
2019-01-26T23:31:21.081Z,99.90
2019-01-26T23:33:57.245Z,99.90
2019-01-26T23:36:29.620Z,99.90
2019-01-26T23:39:02.744Z,99.90
2019-01-26T23:41:35.097Z,99.90
2019-01-26T23:44:07.607Z,99.90
2019-01-26T23:46:39.938Z,99.90
2019-01-26T23:49:12.325Z,99.90
2019-01-26T23:51:44.845Z,99.90
2019-01-26T23:54:17.312Z,99.90
2019-01-26T23:56:50.830Z,99.90
2019-01-26T23:59:23.220Z,99.90
